createdAt,value
2024-01-24T00:01:44.793Z,3.67
2024-01-24T00:04:13.948Z,2.95
2024-01-24T00:06:43.113Z,4.57
2024-01-24T00:09:12.186Z,4.95
2024-01-24T00:11:41.302Z,4.43
2024-01-24T00:14:11.119Z,2.42
2024-01-24T00:16:42.129Z,3.95
2024-01-24T00:19:11.179Z,3.80
2024-01-24T00:21:40.942Z,2.47
2024-01-24T00:24:10.302Z,4.30
2024-01-24T00:26:40.045Z,3.08
2024-01-24T00:29:09.665Z,2.20
2024-01-24T00:31:38.718Z,5.35
2024-01-24T00:34:10.117Z,4.28
2024-01-24T00:36:39.211Z,3.13
2024-01-24T00:39:09.574Z,3.45
2024-01-24T00:41:38.624Z,3.72
2024-01-24T00:44:07.644Z,5.55
2024-01-24T00:46:36.972Z,2.75
2024-01-24T00:49:10.687Z,2.72
2024-01-24T00:51:41.497Z,3.97
2024-01-24T00:54:10.531Z,2.60
2024-01-24T00:56:39.550Z,3.95
2024-01-24T00:59:08.521Z,3.60
2024-01-24T01:01:37.841Z,5.00
2024-01-24T01:04:07.229Z,4.05
2024-01-24T01:06:36.298Z,3.53
2024-01-24T01:09:06.964Z,3.38
2024-01-24T01:11:35.972Z,3.22
2024-01-24T01:14:05.482Z,4.13
2024-01-24T01:16:34.500Z,3.50
2024-01-24T01:19:03.767Z,3.22
2024-01-24T01:21:33.015Z,4.63
2024-01-24T01:24:02.180Z,3.95
2024-01-24T01:26:37.442Z,5.38
2024-01-24T01:29:06.779Z,3.67
2024-01-24T01:31:35.859Z,7.10
2024-01-24T01:34:06.164Z,4.50
2024-01-24T01:36:35.514Z,2.63
2024-01-24T01:39:06.148Z,3.72
2024-01-24T01:41:38.890Z,5.70
2024-01-24T01:44:07.973Z,4.07
2024-01-24T01:46:38.095Z,4.10
2024-01-24T01:49:07.518Z,4.13
2024-01-24T01:51:37.341Z,3.38
2024-01-24T01:54:06.721Z,4.18
2024-01-24T01:56:37.796Z,4.03
2024-01-24T01:59:07.746Z,5.00
2024-01-24T02:01:37.926Z,4.38
2024-01-24T02:04:07.543Z,4.80
2024-01-24T02:06:36.802Z,10.45
2024-01-24T02:09:11.417Z,5.43
2024-01-24T02:11:42.447Z,6.65
2024-01-24T02:14:13.105Z,4.78
2024-01-24T02:16:42.174Z,6.18
2024-01-24T02:19:11.363Z,5.25
2024-01-24T02:21:40.461Z,8.05
2024-01-24T02:24:12.872Z,6.68
2024-01-24T02:26:41.959Z,4.97
2024-01-24T02:29:10.956Z,7.25
2024-01-24T02:31:39.954Z,7.45
2024-01-24T02:34:09.157Z,7.22
2024-01-24T02:36:38.168Z,6.95
2024-01-24T02:39:07.530Z,7.40
2024-01-24T02:41:40.475Z,5.13
2024-01-24T02:44:09.465Z,12.75
2024-01-24T02:46:38.511Z,12.73
2024-01-24T02:49:07.720Z,11.43
2024-01-24T02:51:36.824Z,7.43
2024-01-24T02:54:06.608Z,12.43
2024-01-24T02:56:38.090Z,7.72
2024-01-24T02:59:07.168Z,7.78
2024-01-24T03:01:36.241Z,8.65
2024-01-24T03:04:05.519Z,9.93
2024-01-24T03:06:34.586Z,7.72
2024-01-24T03:09:03.927Z,8.48
2024-01-24T03:11:32.960Z,8.90
2024-01-24T03:14:03.561Z,9.40
2024-01-24T03:16:33.037Z,10.27
2024-01-24T03:19:02.134Z,7.72
2024-01-24T03:21:31.212Z,8.27
2024-01-24T03:24:00.484Z,7.63
2024-01-24T03:26:29.546Z,7.78
2024-01-24T03:28:58.599Z,9.55
2024-01-24T03:31:29.354Z,9.32
2024-01-24T03:33:58.891Z,7.18
2024-01-24T03:36:28.083Z,8.23
2024-01-24T03:38:57.198Z,10.63
2024-01-24T03:41:26.218Z,9.77
2024-01-24T03:43:55.272Z,7.93
2024-01-24T03:46:24.562Z,8.30
2024-01-24T03:48:55.329Z,11.63
2024-01-24T03:51:24.418Z,9.15
2024-01-24T03:53:53.516Z,9.07
2024-01-24T03:56:22.676Z,8.95
2024-01-24T03:58:51.704Z,8.10
2024-01-24T04:01:20.828Z,13.63
2024-01-24T04:03:50.389Z,16.85
2024-01-24T04:06:21.310Z,10.52
2024-01-24T04:08:50.432Z,9.73
2024-01-24T04:11:19.494Z,12.82
2024-01-24T04:13:54.987Z,5.30
2024-01-24T04:16:24.069Z,6.13
2024-01-24T04:18:53.352Z,8.43
2024-01-24T04:21:24.674Z,7.68
2024-01-24T04:23:53.614Z,7.47
2024-01-24T04:26:24.093Z,11.88
2024-01-24T04:28:53.107Z,10.20
2024-01-24T04:31:22.112Z,8.75
2024-01-24T04:33:51.198Z,9.57
2024-01-24T04:36:20.370Z,9.20
2024-01-24T04:38:51.008Z,9.05
2024-01-24T04:41:20.057Z,7.47
2024-01-24T04:43:49.160Z,9.57
2024-01-24T04:46:18.291Z,7.85
2024-01-24T04:48:47.601Z,8.52
2024-01-24T04:51:16.796Z,9.02
2024-01-24T04:53:45.825Z,9.07
2024-01-24T04:56:16.467Z,6.93
2024-01-24T04:58:45.540Z,7.30
2024-01-24T05:01:14.624Z,10.45
2024-01-24T05:03:43.834Z,8.70
2024-01-24T05:06:13.205Z,8.18
2024-01-24T05:08:42.454Z,6.75
2024-01-24T05:11:11.667Z,8.85
2024-01-24T05:13:42.497Z,9.60
2024-01-24T05:16:13.136Z,8.80
2024-01-24T05:18:42.381Z,7.50
2024-01-24T05:21:11.535Z,8.88
2024-01-24T05:23:40.684Z,11.18
2024-01-24T05:26:09.650Z,15.13
2024-01-24T05:28:38.704Z,8.15
2024-01-24T05:31:09.491Z,8.77
2024-01-24T05:33:38.551Z,9.45
2024-01-24T05:36:07.939Z,6.68
2024-01-24T05:38:37.034Z,7.95
2024-01-24T05:41:06.229Z,7.65
2024-01-24T05:43:35.196Z,8.13
2024-01-24T05:46:04.661Z,9.20
2024-01-24T05:48:35.440Z,7.32
2024-01-24T05:51:04.761Z,8.57
2024-01-24T05:53:35.212Z,7.88
2024-01-24T05:56:04.318Z,8.40
2024-01-24T05:58:33.336Z,9.40
2024-01-24T06:01:02.503Z,10.70
2024-01-24T06:03:32.126Z,10.38
2024-01-24T06:06:03.377Z,10.45
2024-01-24T06:08:33.421Z,6.88
2024-01-24T06:11:02.500Z,11.63
2024-01-24T06:13:31.693Z,7.38
2024-01-24T06:16:00.745Z,8.85
2024-01-24T06:18:30.094Z,7.32
2024-01-24T06:21:03.440Z,6.75
2024-01-24T06:23:32.507Z,9.02
2024-01-24T06:26:01.627Z,8.30
2024-01-24T06:28:30.702Z,8.43
2024-01-24T06:30:59.795Z,8.27
2024-01-24T06:33:29.163Z,7.45
2024-01-24T06:35:59.842Z,7.57
2024-01-24T06:38:30.594Z,7.32
2024-01-24T06:40:59.677Z,10.07
2024-01-24T06:43:28.816Z,10.30
2024-01-24T06:45:58.200Z,9.05
2024-01-24T06:48:27.399Z,11.30
2024-01-24T06:50:56.555Z,8.00
2024-01-24T06:53:26.842Z,9.55
2024-01-24T06:55:58.324Z,12.82
2024-01-24T06:58:27.384Z,7.45
2024-01-24T07:00:58.045Z,7.00
2024-01-24T07:03:27.477Z,7.50
2024-01-24T07:05:56.590Z,6.10
2024-01-24T07:08:25.688Z,7.38
2024-01-24T07:10:54.832Z,7.70
2024-01-24T07:13:25.525Z,8.73
2024-01-24T07:15:54.572Z,7.85
2024-01-24T07:18:23.777Z,7.97
2024-01-24T07:20:52.898Z,11.65
2024-01-24T07:23:21.991Z,6.70
2024-01-24T07:25:51.160Z,8.02
2024-01-24T07:28:23.328Z,6.05
2024-01-24T07:30:54.044Z,6.82
2024-01-24T07:33:25.326Z,7.45
2024-01-24T07:35:54.687Z,6.50
2024-01-24T07:38:23.738Z,7.25
2024-01-24T07:40:52.848Z,6.05
2024-01-24T07:43:22.162Z,9.88
2024-01-24T07:45:53.047Z,7.22
2024-01-24T07:48:23.716Z,5.40
2024-01-24T07:50:53.197Z,6.90
2024-01-24T07:53:25.301Z,7.82
2024-01-24T07:56:02.246Z,5.25
2024-01-24T07:58:42.429Z,7.68
2024-01-24T08:01:13.437Z,13.88
2024-01-24T08:03:44.434Z,8.85
2024-01-24T08:06:14.808Z,8.20
2024-01-24T08:08:43.999Z,5.93
2024-01-24T08:11:13.114Z,6.78
2024-01-24T08:13:43.218Z,8.15
2024-01-24T08:16:14.564Z,7.15
2024-01-24T08:18:47.282Z,5.10
2024-01-24T08:21:16.528Z,8.85
2024-01-24T08:23:49.550Z,6.25
2024-01-24T08:26:20.753Z,9.27
2024-01-24T08:28:50.187Z,6.72
2024-01-24T08:31:20.874Z,5.97
2024-01-24T08:33:52.345Z,7.70
2024-01-24T08:36:22.183Z,5.93
2024-01-24T08:38:52.841Z,5.97
2024-01-24T08:41:21.849Z,6.25
2024-01-24T08:43:50.846Z,7.43
2024-01-24T08:46:21.452Z,7.60
2024-01-24T08:48:50.664Z,6.97
2024-01-24T08:51:19.825Z,7.30
2024-01-24T08:53:51.652Z,7.10
2024-01-24T08:56:20.714Z,6.78
2024-01-24T08:58:49.698Z,5.03
2024-01-24T09:01:21.228Z,7.20
2024-01-24T09:03:52.244Z,7.25
2024-01-24T09:06:27.237Z,7.60
2024-01-24T09:08:56.406Z,5.75
2024-01-24T09:11:31.559Z,7.63
2024-01-24T09:14:06.963Z,9.48
2024-01-24T09:16:37.941Z,8.27
2024-01-24T09:19:07.124Z,9.23
2024-01-24T09:21:36.357Z,7.40
2024-01-24T09:24:05.643Z,6.03
2024-01-24T09:26:35.378Z,6.10
2024-01-24T09:29:04.878Z,8.02
2024-01-24T09:31:33.979Z,5.20
2024-01-24T09:34:04.841Z,4.32
2024-01-24T09:36:34.005Z,6.32
2024-01-24T09:39:03.037Z,5.88
2024-01-24T09:41:40.497Z,7.57
2024-01-24T09:44:16.387Z,6.50
2024-01-24T09:46:48.170Z,7.22
2024-01-24T09:49:20.586Z,7.13
2024-01-24T09:51:51.955Z,6.43
2024-01-24T09:54:22.107Z,7.07
2024-01-24T09:56:53.525Z,6.22
2024-01-24T09:59:30.422Z,6.50
2024-01-24T10:02:01.044Z,5.85
2024-01-24T10:04:39.297Z,4.95
2024-01-24T10:07:13.417Z,5.47
2024-01-24T10:09:42.867Z,6.78
2024-01-24T10:12:12.223Z,6.70
2024-01-24T10:14:45.300Z,6.15
2024-01-24T10:17:15.717Z,4.50
2024-01-24T10:19:50.396Z,7.28
2024-01-24T10:22:21.389Z,4.70
2024-01-24T10:24:50.429Z,5.93
2024-01-24T10:27:19.642Z,5.38
2024-01-24T10:29:48.927Z,5.95
2024-01-24T10:32:18.196Z,6.13
2024-01-24T10:34:51.513Z,5.70
2024-01-24T10:37:21.275Z,7.18
2024-01-24T10:39:55.847Z,7.32
2024-01-24T10:42:30.709Z,4.03
2024-01-24T10:45:02.966Z,4.78
2024-01-24T10:47:32.656Z,5.05
2024-01-24T10:50:05.955Z,5.65
2024-01-24T10:52:36.119Z,5.90
2024-01-24T10:55:08.306Z,6.43
2024-01-24T10:57:37.669Z,6.22
2024-01-24T11:00:07.727Z,5.03
2024-01-24T11:02:36.902Z,6.68
2024-01-24T11:05:10.405Z,5.40
2024-01-24T11:07:50.036Z,4.38
2024-01-24T11:10:26.251Z,5.28
2024-01-24T11:12:55.621Z,3.83
2024-01-24T11:15:24.863Z,4.78
2024-01-24T11:18:24.129Z,5.32
2024-01-24T11:20:56.769Z,5.28
2024-01-24T11:23:51.133Z,4.15
2024-01-24T11:26:50.170Z,6.95
2024-01-24T11:29:19.782Z,4.47
2024-01-24T11:31:49.436Z,4.68
2024-01-24T11:34:18.794Z,7.18
2024-01-24T11:36:51.058Z,4.35
2024-01-24T11:39:37.280Z,4.60
2024-01-24T11:42:44.805Z,7.13
2024-01-24T11:45:21.948Z,6.80
2024-01-24T11:47:51.556Z,4.88
2024-01-24T11:50:22.517Z,3.38
2024-01-24T11:53:01.040Z,3.97
2024-01-24T11:55:30.204Z,5.13
2024-01-24T11:57:59.674Z,4.85
2024-01-24T12:00:28.922Z,4.60
2024-01-24T12:02:58.237Z,5.95
2024-01-24T12:05:27.645Z,6.55
2024-01-24T12:07:59.573Z,5.65
2024-01-24T12:10:28.625Z,4.47
2024-01-24T12:12:57.748Z,3.90
2024-01-24T12:15:28.395Z,6.88
2024-01-24T12:18:04.703Z,5.63
2024-01-24T12:20:34.293Z,3.88
2024-01-24T12:23:08.217Z,6.68
2024-01-24T12:25:38.635Z,5.90
2024-01-24T12:28:08.624Z,5.38
2024-01-24T12:30:38.302Z,5.45
2024-01-24T12:33:09.954Z,3.65
2024-01-24T12:35:39.166Z,4.93
2024-01-24T12:38:10.665Z,5.30
2024-01-24T12:40:39.741Z,3.45
2024-01-24T12:43:09.627Z,5.75
2024-01-24T12:45:40.414Z,5.40
2024-01-24T12:48:15.294Z,4.28
2024-01-24T12:50:44.758Z,6.32
2024-01-24T12:53:15.640Z,5.05
2024-01-24T12:55:44.671Z,4.65
2024-01-24T12:58:14.009Z,4.45
2024-01-24T13:00:43.189Z,7.28
2024-01-24T13:03:15.094Z,5.65
2024-01-24T13:05:47.499Z,3.25
2024-01-24T13:08:22.706Z,7.32
2024-01-24T13:10:54.057Z,6.10
2024-01-24T13:13:23.211Z,4.97
2024-01-24T13:15:55.360Z,8.05
2024-01-24T13:18:24.872Z,7.80
2024-01-24T13:20:53.974Z,5.25
2024-01-24T13:23:24.594Z,5.82
2024-01-24T13:25:53.735Z,4.82
2024-01-24T13:28:23.960Z,5.88
2024-01-24T13:30:53.927Z,5.18
2024-01-24T13:33:23.458Z,3.53
2024-01-24T13:35:52.595Z,5.53
2024-01-24T13:38:21.957Z,5.93
2024-01-24T13:40:52.774Z,3.15
2024-01-24T13:43:21.916Z,4.20
2024-01-24T13:45:51.051Z,5.70
2024-01-24T13:48:20.155Z,4.68
2024-01-24T13:50:49.257Z,5.45
2024-01-24T13:53:18.388Z,3.63
2024-01-24T13:55:47.925Z,5.88
2024-01-24T13:58:19.439Z,3.92
2024-01-24T14:00:49.230Z,6.80
2024-01-24T14:03:18.644Z,4.85
2024-01-24T14:05:47.856Z,4.65
2024-01-24T14:08:17.153Z,5.00
2024-01-24T14:10:46.135Z,5.97
2024-01-24T14:13:17.034Z,9.00
2024-01-24T14:15:47.925Z,6.63
2024-01-24T14:18:17.001Z,7.55
2024-01-24T14:20:46.092Z,4.72
2024-01-24T14:23:15.128Z,4.63
2024-01-24T14:25:44.175Z,6.55
2024-01-24T14:28:13.281Z,6.07
2024-01-24T14:30:42.401Z,4.85
2024-01-24T14:33:17.966Z,4.03
2024-01-24T14:35:53.191Z,6.38
2024-01-24T14:38:22.320Z,4.88
2024-01-24T14:40:51.646Z,6.38
2024-01-24T14:43:20.718Z,6.03
2024-01-24T14:45:49.827Z,6.13
2024-01-24T14:48:21.117Z,6.70
2024-01-24T14:50:50.466Z,8.98
2024-01-24T14:53:19.584Z,5.90
2024-01-24T14:55:48.642Z,7.32
2024-01-24T14:58:18.302Z,11.50
2024-01-24T15:00:49.172Z,6.95
2024-01-24T15:03:19.962Z,7.07
2024-01-24T15:05:48.986Z,6.32
2024-01-24T15:08:20.152Z,8.55
2024-01-24T15:10:49.885Z,6.40
2024-01-24T15:13:19.154Z,8.32
2024-01-24T15:15:51.009Z,8.18
2024-01-24T15:18:22.176Z,7.10
2024-01-24T15:20:59.118Z,5.88
2024-01-24T15:23:36.679Z,7.65
2024-01-24T15:26:06.682Z,6.82
2024-01-24T15:28:37.119Z,5.85
2024-01-24T15:31:08.422Z,8.57
2024-01-24T15:33:40.999Z,5.85
2024-01-24T15:36:11.054Z,7.90
2024-01-24T15:38:42.695Z,6.20
2024-01-24T15:41:12.280Z,7.88
2024-01-24T15:43:42.782Z,8.10
2024-01-24T15:46:14.780Z,8.50
2024-01-24T15:48:46.246Z,10.18
2024-01-24T15:51:18.583Z,7.15
2024-01-24T15:53:47.673Z,7.40
2024-01-24T15:56:17.411Z,6.78
2024-01-24T15:58:46.530Z,8.88
2024-01-24T16:01:15.780Z,5.85
2024-01-24T16:03:46.813Z,6.57
2024-01-24T16:06:16.065Z,9.60
2024-01-24T16:08:45.318Z,5.97
2024-01-24T16:11:14.509Z,6.30
2024-01-24T16:13:44.267Z,6.30
2024-01-24T16:16:26.659Z,8.48
2024-01-24T16:18:57.731Z,10.77
2024-01-24T16:21:27.050Z,8.75
2024-01-24T16:23:56.163Z,8.10
2024-01-24T16:26:27.943Z,8.77
2024-01-24T16:28:57.418Z,8.80
2024-01-24T16:31:27.680Z,12.55
2024-01-24T16:33:59.208Z,9.65
2024-01-24T16:36:28.526Z,8.25
2024-01-24T16:38:57.724Z,10.35
2024-01-24T16:41:27.159Z,8.93
2024-01-24T16:43:56.241Z,9.20
2024-01-24T16:46:25.328Z,7.95
2024-01-24T16:48:57.199Z,8.07
2024-01-24T16:51:28.985Z,8.88
2024-01-24T16:53:58.213Z,7.40
2024-01-24T16:56:27.434Z,7.85
2024-01-24T16:58:56.778Z,9.43
2024-01-24T17:01:26.158Z,6.88
2024-01-24T17:03:55.273Z,10.07
2024-01-24T17:06:25.691Z,13.60
2024-01-24T17:08:56.483Z,7.97
2024-01-24T17:11:25.649Z,8.25
2024-01-24T17:13:55.547Z,8.38
2024-01-24T17:16:24.728Z,9.77
2024-01-24T17:18:53.921Z,7.97
2024-01-24T17:21:23.694Z,6.95
2024-01-24T17:23:52.936Z,18.65
2024-01-24T17:26:23.886Z,10.90
2024-01-24T17:28:55.114Z,9.43
2024-01-24T17:31:24.902Z,11.02
2024-01-24T17:33:54.036Z,10.55
2024-01-24T17:36:23.182Z,9.90
2024-01-24T17:38:52.344Z,10.55
2024-01-24T17:41:24.141Z,8.60
2024-01-24T17:43:53.288Z,10.38
2024-01-24T17:46:22.323Z,11.75
2024-01-24T17:48:51.650Z,11.00
2024-01-24T17:51:20.806Z,13.50
2024-01-24T17:53:49.832Z,11.35
2024-01-24T17:56:21.997Z,13.10
2024-01-24T17:58:54.334Z,11.07
2024-01-24T18:01:23.829Z,12.15
2024-01-24T18:03:52.993Z,11.07
2024-01-24T18:06:22.265Z,9.80
2024-01-24T18:08:51.822Z,11.45
2024-01-24T18:11:20.831Z,11.10
2024-01-24T18:13:49.891Z,11.73
2024-01-24T18:16:20.896Z,11.00
2024-01-24T18:18:51.062Z,11.65
2024-01-24T18:21:20.168Z,11.50
2024-01-24T18:23:49.242Z,11.35
2024-01-24T18:26:18.293Z,10.30
2024-01-24T18:28:49.085Z,15.10
2024-01-24T18:31:21.063Z,13.07
2024-01-24T18:33:50.193Z,20.70
2024-01-24T18:36:19.953Z,10.70
2024-01-24T18:38:49.000Z,13.07
2024-01-24T18:41:21.201Z,12.82
2024-01-24T18:43:52.981Z,18.60
2024-01-24T18:46:27.403Z,13.73
2024-01-24T18:48:58.782Z,14.20
2024-01-24T18:51:29.694Z,14.82
2024-01-24T18:53:58.907Z,13.77
2024-01-24T18:56:30.277Z,15.05
2024-01-24T18:59:00.151Z,12.57
2024-01-24T19:01:31.084Z,11.65
2024-01-24T19:04:01.312Z,12.50
2024-01-24T19:06:31.090Z,13.35
2024-01-24T19:09:01.732Z,11.73
2024-01-24T19:11:31.844Z,16.10
2024-01-24T19:14:01.078Z,12.38
2024-01-24T19:16:32.897Z,14.10
2024-01-24T19:19:02.371Z,11.48
2024-01-24T19:21:31.659Z,10.38
2024-01-24T19:24:00.797Z,10.45
2024-01-24T19:26:34.702Z,10.50
2024-01-24T19:29:04.275Z,10.70
2024-01-24T19:31:34.935Z,9.05
2024-01-24T19:34:04.057Z,11.05
2024-01-24T19:36:33.780Z,9.60
2024-01-24T19:39:02.800Z,11.55
2024-01-24T19:41:31.804Z,11.52
2024-01-24T19:44:00.906Z,11.93
2024-01-24T19:46:29.942Z,15.73
2024-01-24T19:49:00.652Z,11.10
2024-01-24T19:51:29.834Z,9.25
2024-01-24T19:53:59.668Z,9.32
2024-01-24T19:56:28.866Z,11.82
2024-01-24T19:58:58.870Z,11.18
2024-01-24T20:01:28.011Z,10.15
2024-01-24T20:03:57.083Z,9.05
2024-01-24T20:06:27.775Z,12.43
2024-01-24T20:08:56.801Z,7.50
2024-01-24T20:11:25.890Z,9.38
2024-01-24T20:13:55.056Z,10.38
2024-01-24T20:16:24.778Z,14.90
2024-01-24T20:18:53.959Z,10.23
2024-01-24T20:21:24.071Z,13.38
2024-01-24T20:23:54.860Z,13.10
2024-01-24T20:26:24.794Z,9.27
2024-01-24T20:28:54.453Z,8.57
2024-01-24T20:31:23.548Z,11.68
2024-01-24T20:33:52.712Z,8.15
2024-01-24T20:36:24.946Z,13.05
2024-01-24T20:38:55.707Z,11.93
2024-01-24T20:41:25.987Z,9.30
2024-01-24T20:43:56.308Z,8.43
2024-01-24T20:46:25.393Z,10.20
2024-01-24T20:48:55.834Z,13.52
2024-01-24T20:51:25.030Z,14.05
2024-01-24T20:53:56.003Z,12.80
2024-01-24T20:56:25.053Z,9.60
2024-01-24T20:58:54.536Z,12.07
2024-01-24T21:01:24.006Z,9.90
2024-01-24T21:03:54.356Z,10.90
2024-01-24T21:06:29.426Z,12.77
2024-01-24T21:09:00.392Z,10.90
2024-01-24T21:11:29.901Z,10.50
2024-01-24T21:13:59.300Z,9.68
2024-01-24T21:16:28.495Z,9.57
2024-01-24T21:18:57.755Z,9.35
2024-01-24T21:21:28.591Z,11.43
2024-01-24T21:23:57.885Z,10.27
2024-01-24T21:26:28.552Z,11.75
2024-01-24T21:28:58.664Z,10.68
2024-01-24T21:31:27.735Z,10.57
2024-01-24T21:33:56.746Z,12.30
2024-01-24T21:36:25.818Z,9.57
2024-01-24T21:38:54.941Z,13.63
2024-01-24T21:41:23.954Z,9.50
2024-01-24T21:43:54.731Z,8.65
2024-01-24T21:46:23.749Z,10.88
2024-01-24T21:48:52.955Z,8.23
2024-01-24T21:51:22.051Z,8.60
2024-01-24T21:53:51.416Z,9.70
2024-01-24T21:56:20.540Z,10.65
2024-01-24T21:58:50.560Z,12.55
2024-01-24T22:01:21.298Z,10.35
2024-01-24T22:03:50.667Z,9.00
2024-01-24T22:06:19.757Z,9.95
2024-01-24T22:08:49.493Z,8.38
2024-01-24T22:11:18.636Z,7.90
2024-01-24T22:13:47.625Z,10.65
2024-01-24T22:16:16.647Z,9.68
2024-01-24T22:18:48.578Z,9.30
2024-01-24T22:21:21.918Z,12.32
2024-01-24T22:23:51.069Z,10.38
2024-01-24T22:26:20.139Z,11.75
2024-01-24T22:28:49.175Z,15.52
2024-01-24T22:31:18.307Z,9.85
2024-01-24T22:33:49.259Z,10.13
2024-01-24T22:36:19.383Z,10.02
2024-01-24T22:38:50.140Z,10.73
2024-01-24T22:41:19.832Z,10.02
2024-01-24T22:43:48.885Z,10.90
2024-01-24T22:46:18.128Z,7.88
2024-01-24T22:48:49.171Z,10.07
2024-01-24T22:51:18.795Z,8.73
2024-01-24T22:53:47.861Z,9.95
2024-01-24T22:56:16.983Z,9.18
2024-01-24T22:58:46.041Z,9.38
2024-01-24T23:01:15.475Z,10.00
2024-01-24T23:03:44.641Z,10.43
2024-01-24T23:06:15.404Z,11.65
2024-01-24T23:08:45.188Z,10.00
2024-01-24T23:11:14.431Z,6.95
2024-01-24T23:13:43.589Z,10.55
2024-01-24T23:16:13.118Z,13.73
2024-01-24T23:18:42.312Z,17.13
2024-01-24T23:21:11.362Z,13.75
2024-01-24T23:23:42.836Z,14.55
2024-01-24T23:26:11.796Z,11.70
2024-01-24T23:28:40.803Z,11.63
2024-01-24T23:31:10.196Z,12.93
2024-01-24T23:33:39.501Z,10.20
2024-01-24T23:36:10.217Z,10.18
2024-01-24T23:38:40.978Z,10.07
2024-01-24T23:41:10.001Z,10.65
2024-01-24T23:43:39.179Z,13.48
2024-01-24T23:46:08.228Z,9.30
2024-01-24T23:48:37.607Z,9.75
2024-01-24T23:51:07.853Z,13.57
2024-01-24T23:53:36.974Z,11.20
2024-01-24T23:56:08.152Z,9.63
2024-01-24T23:58:37.264Z,8.98
